sensor_id;sensor_type;location;lat;lon;timestamp;pressure;altitude;pressure_sealevel;temperature;humidity
33554;BME280;19885;42.208;24.952;2023-01-27T00:01:35;99173.81;;;2.81;100.00
33554;BME280;19885;42.208;24.952;2023-01-27T00:04:01;99170.72;;;2.95;100.00
33554;BME280;19885;42.208;24.952;2023-01-27T00:06:29;99156.63;;;2.80;100.00
33554;BME280;19885;42.208;24.952;2023-01-27T00:08:55;99174.28;;;3.00;100.00
33554;BME280;19885;42.208;24.952;2023-01-27T00:11:20;99181.00;;;2.95;100.00
33554;BME280;19885;42.208;24.952;2023-01-27T00:14:05;99186.28;;;3.01;100.00
33554;BME280;19885;42.208;24.952;2023-01-27T00:16:31;99199.50;;;3.14;100.00
33554;BME280;19885;42.208;24.952;2023-01-27T00:18:56;99184.34;;;2.91;100.00
33554;BME280;19885;42.208;24.952;2023-01-27T00:21:22;99201.19;;;3.12;100.00
33554;BME280;19885;42.208;24.952;2023-01-27T00:24:10;99190.78;;;3.09;100.00
33554;BME280;19885;42.208;24.952;2023-01-27T00:26:55;99191.66;;;3.10;100.00
33554;BME280;19885;42.208;24.952;2023-01-27T00:29:27;99199.25;;;3.04;100.00
33554;BME280;19885;42.208;24.952;2023-01-27T00:31:52;99195.78;;;3.02;100.00
33554;BME280;19885;42.208;24.952;2023-01-27T00:34:36;99186.53;;;3.10;100.00
33554;BME280;19885;42.208;24.952;2023-01-27T00:37:04;99157.22;;;3.05;100.00
33554;BME280;19885;42.208;24.952;2023-01-27T00:39:29;99177.91;;;3.08;100.00
33554;BME280;19885;42.208;24.952;2023-01-27T00:41:55;99169.31;;;3.07;100.00
33554;BME280;19885;42.208;24.952;2023-01-27T00:44:20;99159.56;;;2.96;100.00
33554;BME280;19885;42.208;24.952;2023-01-27T00:46:48;99163.22;;;3.04;100.00
33554;BME280;19885;42.208;24.952;2023-01-27T00:49:14;99178.72;;;3.07;100.00
33554;BME280;19885;42.208;24.952;2023-01-27T00:51:40;99184.84;;;3.12;100.00
33554;BME280;19885;42.208;24.952;2023-01-27T00:54:06;99184.84;;;3.12;100.00
33554;BME280;19885;42.208;24.952;2023-01-27T00:56:32;99169.50;;;3.15;100.00
33554;BME280;19885;42.208;24.952;2023-01-27T00:58:58;99159.13;;;3.12;100.00
33554;BME280;19885;42.208;24.952;2023-01-27T01:01:23;99138.31;;;3.03;100.00
33554;BME280;19885;42.208;24.952;2023-01-27T01:03:49;99149.13;;;3.24;100.00
33554;BME280;19885;42.208;24.952;2023-01-27T01:06:16;99145.75;;;3.25;100.00
33554;BME280;19885;42.208;24.952;2023-01-27T01:08:42;99126.78;;;3.23;100.00
33554;BME280;19885;42.208;24.952;2023-01-27T01:11:10;99116.56;;;3.26;100.00
33554;BME280;19885;42.208;24.952;2023-01-27T01:13:38;99078.75;;;3.23;100.00
33554;BME280;19885;42.208;24.952;2023-01-27T01:16:09;99076.28;;;3.26;100.00
33554;BME280;19885;42.208;24.952;2023-01-27T01:18:35;99064.81;;;3.14;100.00
33554;BME280;19885;42.208;24.952;2023-01-27T01:21:02;99041.88;;;2.85;100.00
33554;BME280;19885;42.208;24.952;2023-01-27T01:23:28;99112.19;;;3.22;100.00
33554;BME280;19885;42.208;24.952;2023-01-27T01:25:55;99116.38;;;3.18;100.00
33554;BME280;19885;42.208;24.952;2023-01-27T01:28:24;99124.16;;;3.20;100.00
33554;BME280;19885;42.208;24.952;2023-01-27T01:30:52;99141.66;;;2.99;100.00
33554;BME280;19885;42.208;24.952;2023-01-27T01:33:18;99147.44;;;2.90;100.00
33554;BME280;19885;42.208;24.952;2023-01-27T01:35:49;99113.56;;;2.73;100.00
33554;BME280;19885;42.208;24.952;2023-01-27T01:38:14;99163.75;;;2.91;100.00
33554;BME280;19885;42.208;24.952;2023-01-27T01:40:41;99173.16;;;2.90;100.00
33554;BME280;19885;42.208;24.952;2023-01-27T01:43:15;99170.84;;;2.99;100.00
33554;BME280;19885;42.208;24.952;2023-01-27T01:46:00;99157.31;;;3.08;100.00
33554;BME280;19885;42.208;24.952;2023-01-27T01:48:58;99118.59;;;3.03;100.00
33554;BME280;19885;42.208;24.952;2023-01-27T01:51:33;99109.50;;;3.16;100.00
33554;BME280;19885;42.208;24.952;2023-01-27T01:54:04;99104.09;;;3.07;100.00
33554;BME280;19885;42.208;24.952;2023-01-27T01:56:48;99107.75;;;3.15;100.00
33554;BME280;19885;42.208;24.952;2023-01-27T01:59:19;99099.13;;;3.13;100.00
33554;BME280;19885;42.208;24.952;2023-01-27T02:01:49;99084.75;;;3.22;100.00
33554;BME280;19885;42.208;24.952;2023-01-27T02:04:18;99086.44;;;3.20;100.00
33554;BME280;19885;42.208;24.952;2023-01-27T02:06:51;99098.63;;;3.29;100.00
33554;BME280;19885;42.208;24.952;2023-01-27T02:09:19;99097.66;;;3.24;100.00
33554;BME280;19885;42.208;24.952;2023-01-27T02:11:45;99097.56;;;3.19;100.00
33554;BME280;19885;42.208;24.952;2023-01-27T02:14:15;99078.81;;;3.25;100.00
33554;BME280;19885;42.208;24.952;2023-01-27T02:16:41;99081.66;;;3.37;100.00
33554;BME280;19885;42.208;24.952;2023-01-27T02:19:13;99026.78;;;3.01;100.00
33554;BME280;19885;42.208;24.952;2023-01-27T02:21:47;99080.19;;;3.11;100.00
33554;BME280;19885;42.208;24.952;2023-01-27T02:24:15;99082.13;;;3.21;100.00
33554;BME280;19885;42.208;24.952;2023-01-27T02:26:43;99077.28;;;3.33;100.00
33554;BME280;19885;42.208;24.952;2023-01-27T02:29:11;99074.06;;;3.43;100.00
33554;BME280;19885;42.208;24.952;2023-01-27T02:31:38;99042.25;;;3.41;100.00
33554;BME280;19885;42.208;24.952;2023-01-27T02:34:09;99019.19;;;3.45;100.00
33554;BME280;19885;42.208;24.952;2023-01-27T02:36:50;99022.59;;;3.43;100.00
33554;BME280;19885;42.208;24.952;2023-01-27T02:39:25;99043.03;;;3.37;100.00
33554;BME280;19885;42.208;24.952;2023-01-27T02:41:54;99053.56;;;3.09;100.00
33554;BME280;19885;42.208;24.952;2023-01-27T02:44:21;99063.28;;;3.22;100.00
33554;BME280;19885;42.208;24.952;2023-01-27T02:46:47;99074.78;;;3.36;100.00
33554;BME280;19885;42.208;24.952;2023-01-27T02:49:15;99068.63;;;3.29;100.00
33554;BME280;19885;42.208;24.952;2023-01-27T02:51:44;99055.00;;;3.35;100.00
33554;BME280;19885;42.208;24.952;2023-01-27T02:54:10;99050.75;;;3.37;100.00
33554;BME280;19885;42.208;24.952;2023-01-27T02:56:35;99052.59;;;3.42;100.00
33554;BME280;19885;42.208;24.952;2023-01-27T02:59:01;99069.31;;;3.22;100.00
33554;BME280;19885;42.208;24.952;2023-01-27T03:01:31;99057.19;;;3.18;100.00
33554;BME280;19885;42.208;24.952;2023-01-27T03:03:57;99062.72;;;3.35;100.00
33554;BME280;19885;42.208;24.952;2023-01-27T03:06:23;99048.84;;;3.28;100.00
33554;BME280;19885;42.208;24.952;2023-01-27T03:08:52;99043.72;;;3.30;100.00
33554;BME280;19885;42.208;24.952;2023-01-27T03:11:17;99046.47;;;3.36;100.00
33554;BME280;19885;42.208;24.952;2023-01-27T03:14:06;99030.44;;;3.50;100.00
33554;BME280;19885;42.208;24.952;2023-01-27T03:16:32;99037.38;;;3.53;100.00
33554;BME280;19885;42.208;24.952;2023-01-27T03:19:18;99024.41;;;3.50;100.00
33554;BME280;19885;42.208;24.952;2023-01-27T03:21:44;99027.16;;;3.57;100.00
33554;BME280;19885;42.208;24.952;2023-01-27T03:24:10;99013.50;;;3.60;100.00
33554;BME280;19885;42.208;24.952;2023-01-27T03:26:38;98954.41;;;3.26;100.00
33554;BME280;19885;42.208;24.952;2023-01-27T03:29:03;99035.09;;;3.68;100.00
33554;BME280;19885;42.208;24.952;2023-01-27T03:32:01;99043.69;;;3.67;100.00
33554;BME280;19885;42.208;24.952;2023-01-27T03:34:29;99046.25;;;3.67;100.00
33554;BME280;19885;42.208;24.952;2023-01-27T03:36:54;99053.97;;;3.67;100.00
33554;BME280;19885;42.208;24.952;2023-01-27T03:39:38;99061.03;;;3.76;100.00
33554;BME280;19885;42.208;24.952;2023-01-27T03:42:27;99064.59;;;3.82;100.00
33554;BME280;19885;42.208;24.952;2023-01-27T03:45:11;99050.81;;;3.80;100.00
33554;BME280;19885;42.208;24.952;2023-01-27T03:47:55;99043.75;;;3.70;100.00
33554;BME280;19885;42.208;24.952;2023-01-27T03:50:20;99044.38;;;3.60;100.00
33554;BME280;19885;42.208;24.952;2023-01-27T03:53:02;99077.16;;;3.27;100.00
33554;BME280;19885;42.208;24.952;2023-01-27T03:55:32;99087.38;;;3.24;100.00
33554;BME280;19885;42.208;24.952;2023-01-27T03:57:58;99079.56;;;3.21;100.00
33554;BME280;19885;42.208;24.952;2023-01-27T04:00:39;99063.41;;;3.28;100.00
33554;BME280;19885;42.208;24.952;2023-01-27T04:03:04;99048.88;;;3.30;100.00
33554;BME280;19885;42.208;24.952;2023-01-27T04:05:48;99050.16;;;3.50;100.00
33554;BME280;19885;42.208;24.952;2023-01-27T04:08:32;99046.88;;;3.55;100.00
33554;BME280;19885;42.208;24.952;2023-01-27T04:11:02;99031.59;;;3.63;100.00
33554;BME280;19885;42.208;24.952;2023-01-27T04:13:46;99006.69;;;3.63;100.00
33554;BME280;19885;42.208;24.952;2023-01-27T04:16:16;99018.00;;;3.70;100.00
33554;BME280;19885;42.208;24.952;2023-01-27T04:18:44;99011.19;;;3.74;100.00
33554;BME280;19885;42.208;24.952;2023-01-27T04:21:11;98988.72;;;3.67;100.00
33554;BME280;19885;42.208;24.952;2023-01-27T04:23:40;99000.97;;;3.78;100.00
33554;BME280;19885;42.208;24.952;2023-01-27T04:26:09;98998.41;;;3.78;100.00
33554;BME280;19885;42.208;24.952;2023-01-27T04:28:35;99025.13;;;3.83;100.00
33554;BME280;19885;42.208;24.952;2023-01-27T04:31:01;99027.56;;;3.77;100.00
33554;BME280;19885;42.208;24.952;2023-01-27T04:33:26;99021.50;;;3.74;100.00
33554;BME280;19885;42.208;24.952;2023-01-27T04:35:52;99012.25;;;3.83;100.00
33554;BME280;19885;42.208;24.952;2023-01-27T04:38:17;99005.81;;;4.08;100.00
33554;BME280;19885;42.208;24.952;2023-01-27T04:40:43;99008.38;;;4.06;100.00
33554;BME280;19885;42.208;24.952;2023-01-27T04:43:12;99003.00;;;3.94;100.00
33554;BME280;19885;42.208;24.952;2023-01-27T04:45:43;98976.88;;;3.76;100.00
33554;BME280;19885;42.208;24.952;2023-01-27T04:48:11;99004.72;;;3.95;100.00
33554;BME280;19885;42.208;24.952;2023-01-27T04:50:36;99006.47;;;3.98;100.00
33554;BME280;19885;42.208;24.952;2023-01-27T04:53:02;99000.41;;;3.93;100.00
33554;BME280;19885;42.208;24.952;2023-01-27T04:55:32;98927.59;;;3.56;100.00
33554;BME280;19885;42.208;24.952;2023-01-27T04:57:57;98994.53;;;4.01;100.00
33554;BME280;19885;42.208;24.952;2023-01-27T05:00:23;98968.44;;;3.83;100.00
33554;BME280;19885;42.208;24.952;2023-01-27T05:02:48;99003.06;;;3.97;100.00
33554;BME280;19885;42.208;24.952;2023-01-27T05:05:16;99003.81;;;3.92;100.00
33554;BME280;19885;42.208;24.952;2023-01-27T05:07:45;98993.59;;;3.96;100.00
33554;BME280;19885;42.208;24.952;2023-01-27T05:10:11;98989.94;;;3.84;100.00
33554;BME280;19885;42.208;24.952;2023-01-27T05:12:36;99021.78;;;3.89;100.00
33554;BME280;19885;42.208;24.952;2023-01-27T05:15:02;99022.72;;;3.92;100.00
33554;BME280;19885;42.208;24.952;2023-01-27T05:17:32;98967.84;;;3.53;100.00
33554;BME280;19885;42.208;24.952;2023-01-27T05:19:58;99042.56;;;3.98;100.00
33554;BME280;19885;42.208;24.952;2023-01-27T05:22:23;98963.66;;;3.56;100.00
33554;BME280;19885;42.208;24.952;2023-01-27T05:24:49;99036.50;;;3.96;100.00
33554;BME280;19885;42.208;24.952;2023-01-27T05:27:18;99042.63;;;3.99;100.00
33554;BME280;19885;42.208;24.952;2023-01-27T05:29:43;99041.38;;;3.81;100.00
33554;BME280;19885;42.208;24.952;2023-01-27T05:32:11;99042.19;;;3.78;100.00
33554;BME280;19885;42.208;24.952;2023-01-27T05:34:37;98979.09;;;3.56;100.00
33554;BME280;19885;42.208;24.952;2023-01-27T05:37:05;99042.44;;;3.90;100.00
33554;BME280;19885;42.208;24.952;2023-01-27T05:39:31;99025.22;;;3.89;100.00
33554;BME280;19885;42.208;24.952;2023-01-27T05:41:56;99044.16;;;3.91;100.00
33554;BME280;19885;42.208;24.952;2023-01-27T05:44:21;99033.75;;;3.85;100.00
33554;BME280;19885;42.208;24.952;2023-01-27T05:46:50;99032.94;;;3.88;100.00
33554;BME280;19885;42.208;24.952;2023-01-27T05:49:18;99038.66;;;3.73;100.00
33554;BME280;19885;42.208;24.952;2023-01-27T05:51:43;99066.44;;;3.89;100.00
33554;BME280;19885;42.208;24.952;2023-01-27T05:54:12;99051.00;;;3.89;100.00
33554;BME280;19885;42.208;24.952;2023-01-27T05:56:37;99035.47;;;3.86;100.00
33554;BME280;19885;42.208;24.952;2023-01-27T05:59:05;99026.91;;;3.87;100.00
33554;BME280;19885;42.208;24.952;2023-01-27T06:01:32;99021.59;;;3.80;100.00
33554;BME280;19885;42.208;24.952;2023-01-27T06:03:58;99023.44;;;3.85;100.00
33554;BME280;19885;42.208;24.952;2023-01-27T06:06:26;99011.38;;;3.84;100.00
33554;BME280;19885;42.208;24.952;2023-01-27T06:08:52;99012.97;;;3.76;100.00
33554;BME280;19885;42.208;24.952;2023-01-27T06:11:19;99018.28;;;3.85;100.00
33554;BME280;19885;42.208;24.952;2023-01-27T06:13:46;99003.63;;;3.81;100.00
33554;BME280;19885;42.208;24.952;2023-01-27T06:16:14;99020.88;;;3.85;100.00
33554;BME280;19885;42.208;24.952;2023-01-27T06:18:42;99031.00;;;3.78;100.00
33554;BME280;19885;42.208;24.952;2023-01-27T06:21:09;99043.88;;;3.76;100.00
33554;BME280;19885;42.208;24.952;2023-01-27T06:23:36;99053.47;;;3.83;100.00
33554;BME280;19885;42.208;24.952;2023-01-27T06:26:06;98975.50;;;3.50;100.00
33554;BME280;19885;42.208;24.952;2023-01-27T06:28:34;99053.75;;;3.98;100.00
33554;BME280;19885;42.208;24.952;2023-01-27T06:31:18;99054.72;;;4.03;100.00
33554;BME280;19885;42.208;24.952;2023-01-27T06:33:44;98982.66;;;3.65;100.00
33554;BME280;19885;42.208;24.952;2023-01-27T06:36:12;99055.53;;;4.02;100.00
33554;BME280;19885;42.208;24.952;2023-01-27T06:38:38;99005.22;;;3.75;100.00
33554;BME280;19885;42.208;24.952;2023-01-27T06:41:05;99046.91;;;3.99;100.00
33554;BME280;19885;42.208;24.952;2023-01-27T06:43:30;99045.28;;;4.05;100.00
33554;BME280;19885;42.208;24.952;2023-01-27T06:45:56;99047.25;;;4.17;100.00
33554;BME280;19885;42.208;24.952;2023-01-27T06:48:22;99044.75;;;4.21;100.00
33554;BME280;19885;42.208;24.952;2023-01-27T06:50:48;99037.03;;;4.23;100.00
33554;BME280;19885;42.208;24.952;2023-01-27T06:53:13;99043.00;;;4.20;100.00
33554;BME280;19885;42.208;24.952;2023-01-27T06:55:39;99041.22;;;4.16;100.00
33554;BME280;19885;42.208;24.952;2023-01-27T06:58:07;99030.34;;;4.34;100.00
33554;BME280;19885;42.208;24.952;2023-01-27T07:00:34;99033.06;;;4.42;100.00
33554;BME280;19885;42.208;24.952;2023-01-27T07:03:01;99020.16;;;4.40;100.00
33554;BME280;19885;42.208;24.952;2023-01-27T07:05:27;99042.34;;;4.32;100.00
33554;BME280;19885;42.208;24.952;2023-01-27T07:07:52;99030.16;;;4.23;100.00
33554;BME280;19885;42.208;24.952;2023-01-27T07:10:18;99034.41;;;4.20;100.00
33554;BME280;19885;42.208;24.952;2023-01-27T07:12:43;99043.31;;;4.37;100.00
33554;BME280;19885;42.208;24.952;2023-01-27T07:15:10;99035.66;;;4.43;100.00
33554;BME280;19885;42.208;24.952;2023-01-27T07:17:36;99031.34;;;4.41;100.00
33554;BME280;19885;42.208;24.952;2023-01-27T07:20:03;99037.97;;;4.26;100.00
33554;BME280;19885;42.208;24.952;2023-01-27T07:22:28;99041.38;;;4.25;100.00
33554;BME280;19885;42.208;24.952;2023-01-27T07:24:54;99031.72;;;4.14;100.00
33554;BME280;19885;42.208;24.952;2023-01-27T07:27:23;98967.47;;;3.78;100.00
33554;BME280;19885;42.208;24.952;2023-01-27T07:29:52;99042.34;;;4.30;100.00
33554;BME280;19885;42.208;24.952;2023-01-27T07:32:18;99038.88;;;4.30;100.00
33554;BME280;19885;42.208;24.952;2023-01-27T07:34:43;99048.38;;;4.32;100.00
33554;BME280;19885;42.208;24.952;2023-01-27T07:37:11;98974.66;;;3.96;100.00
33554;BME280;19885;42.208;24.952;2023-01-27T07:39:36;99021.78;;;4.33;100.00
33554;BME280;19885;42.208;24.952;2023-01-27T07:42:03;99041.69;;;4.44;100.00
33554;BME280;19885;42.208;24.952;2023-01-27T07:44:28;98930.59;;;3.79;100.00
33554;BME280;19885;42.208;24.952;2023-01-27T07:46:54;99045.50;;;4.16;100.00
33554;BME280;19885;42.208;24.952;2023-01-27T07:49:22;99037.91;;;4.23;100.00
33554;BME280;19885;42.208;24.952;2023-01-27T07:51:47;99041.59;;;4.38;100.00
33554;BME280;19885;42.208;24.952;2023-01-27T07:54:13;99047.00;;;4.50;100.00
33554;BME280;19885;42.208;24.952;2023-01-27T07:56:38;99040.31;;;4.62;100.00
33554;BME280;19885;42.208;24.952;2023-01-27T07:59:04;99023.06;;;4.60;100.00
33554;BME280;19885;42.208;24.952;2023-01-27T08:01:30;99032.66;;;4.68;100.00
33554;BME280;19885;42.208;24.952;2023-01-27T08:03:57;99028.44;;;4.72;100.00
33554;BME280;19885;42.208;24.952;2023-01-27T08:06:25;99023.34;;;4.76;100.00
33554;BME280;19885;42.208;24.952;2023-01-27T08:08:51;99029.41;;;4.78;100.00
33554;BME280;19885;42.208;24.952;2023-01-27T08:11:16;99027.69;;;4.79;100.00
33554;BME280;19885;42.208;24.952;2023-01-27T08:13:42;99020.91;;;4.87;100.00
33554;BME280;19885;42.208;24.952;2023-01-27T08:16:11;99016.66;;;4.89;100.00
33554;BME280;19885;42.208;24.952;2023-01-27T08:18:37;99014.94;;;4.91;100.00
33554;BME280;19885;42.208;24.952;2023-01-27T08:21:05;99028.06;;;5.04;100.00
33554;BME280;19885;42.208;24.952;2023-01-27T08:23:32;99028.88;;;5.00;100.00
33554;BME280;19885;42.208;24.952;2023-01-27T08:26:01;99010.69;;;4.93;100.00
33554;BME280;19885;42.208;24.952;2023-01-27T08:28:29;99022.19;;;5.13;100.00
33554;BME280;19885;42.208;24.952;2023-01-27T08:31:03;98945.22;;;4.86;100.00
33554;BME280;19885;42.208;24.952;2023-01-27T08:33:29;99000.72;;;5.17;100.00
33554;BME280;19885;42.208;24.952;2023-01-27T08:35:54;99012.81;;;5.20;100.00
33554;BME280;19885;42.208;24.952;2023-01-27T08:38:22;99005.72;;;5.05;100.00
33554;BME280;19885;42.208;24.952;2023-01-27T08:40:48;98945.91;;;4.75;100.00
33554;BME280;19885;42.208;24.952;2023-01-27T08:43:13;99006.78;;;5.19;100.00
33554;BME280;19885;42.208;24.952;2023-01-27T08:45:42;98925.25;;;4.75;100.00
33554;BME280;19885;42.208;24.952;2023-01-27T08:48:08;98996.50;;;5.22;100.00
33554;BME280;19885;42.208;24.952;2023-01-27T08:50:33;98990.38;;;5.16;100.00
33554;BME280;19885;42.208;24.952;2023-01-27T08:52:59;98986.06;;;5.15;100.00
33554;BME280;19885;42.208;24.952;2023-01-27T08:55:32;98924.44;;;4.77;100.00
33554;BME280;19885;42.208;24.952;2023-01-27T08:57:58;98975.72;;;5.13;100.00
33554;BME280;19885;42.208;24.952;2023-01-27T09:00:24;98976.78;;;5.29;99.95
33554;BME280;19885;42.208;24.952;2023-01-27T09:02:50;98976.09;;;5.42;99.85
33554;BME280;19885;42.208;24.952;2023-01-27T09:05:17;98955.97;;;5.17;100.00
33554;BME280;19885;42.208;24.952;2023-01-27T09:07:44;98976.09;;;5.43;99.12
33554;BME280;19885;42.208;24.952;2023-01-27T09:10:10;98979.25;;;5.23;99.69
33554;BME280;19885;42.208;24.952;2023-01-27T09:12:36;98935.88;;;4.96;99.49
33554;BME280;19885;42.208;24.952;2023-01-27T09:15:01;98994.75;;;5.20;100.00
33554;BME280;19885;42.208;24.952;2023-01-27T09:17:27;98996.13;;;4.98;100.00
33554;BME280;19885;42.208;24.952;2023-01-27T09:19:52;99000.13;;;4.78;100.00
33554;BME280;19885;42.208;24.952;2023-01-27T09:22:18;99001.69;;;4.68;100.00
33554;BME280;19885;42.208;24.952;2023-01-27T09:24:43;98994.09;;;4.76;100.00
33554;BME280;19885;42.208;24.952;2023-01-27T09:27:09;98990.53;;;4.68;100.00
33554;BME280;19885;42.208;24.952;2023-01-27T09:29:34;98987.09;;;4.69;100.00
33554;BME280;19885;42.208;24.952;2023-01-27T09:32:01;98979.56;;;4.84;100.00
33554;BME280;19885;42.208;24.952;2023-01-27T09:34:27;98914.59;;;4.51;100.00
33554;BME280;19885;42.208;24.952;2023-01-27T09:36:56;98972.03;;;4.96;100.00
33554;BME280;19885;42.208;24.952;2023-01-27T09:39:24;98970.50;;;5.10;100.00
33554;BME280;19885;42.208;24.952;2023-01-27T10:17:43;98932.75;;;5.90;99.37
33554;BME280;19885;42.208;24.952;2023-01-27T10:19:54;98925.72;;;5.80;99.78
33554;BME280;19885;42.208;24.952;2023-01-27T10:28:17;98903.31;;;5.81;98.97
33554;BME280;19885;42.208;24.952;2023-01-27T10:31:42;98897.34;;;5.86;99.91
33554;BME280;19885;42.208;24.952;2023-01-27T10:34:11;98896.44;;;5.81;99.92
33554;BME280;19885;42.208;24.952;2023-01-27T10:42:56;98900.97;;;6.02;100.00
33554;BME280;19885;42.208;24.952;2023-01-27T10:45:14;98893.13;;;5.93;99.71
33554;BME280;19885;42.208;24.952;2023-01-27T10:50:30;98881.09;;;5.96;100.00
33554;BME280;19885;42.208;24.952;2023-01-27T10:53:16;98873.19;;;5.83;100.00
33554;BME280;19885;42.208;24.952;2023-01-27T10:55:51;98880.09;;;5.84;99.71
33554;BME280;19885;42.208;24.952;2023-01-27T10:58:32;98877.44;;;5.77;100.00
33554;BME280;19885;42.208;24.952;2023-01-27T11:01:01;98864.63;;;5.87;100.00
33554;BME280;19885;42.208;24.952;2023-01-27T11:03:38;98860.25;;;5.81;100.00
33554;BME280;19885;42.208;24.952;2023-01-27T11:06:13;98861.28;;;6.00;100.00
33554;BME280;19885;42.208;24.952;2023-01-27T11:08:49;98855.16;;;5.87;100.00
33554;BME280;19885;42.208;24.952;2023-01-27T11:11:18;98839.63;;;5.84;100.00
33554;BME280;19885;42.208;24.952;2023-01-27T11:14:19;98857.88;;;6.02;100.00
33554;BME280;19885;42.208;24.952;2023-01-27T11:16:52;98829.19;;;5.78;100.00
33554;BME280;19885;42.208;24.952;2023-01-27T11:19:29;98852.75;;;6.11;100.00
33554;BME280;19885;42.208;24.952;2023-01-27T11:21:57;98845.91;;;6.18;100.00
33554;BME280;19885;42.208;24.952;2023-01-27T11:24:46;98851.16;;;6.22;100.00
33554;BME280;19885;42.208;24.952;2023-01-27T11:28:16;98842.50;;;6.20;100.00
33554;BME280;19885;42.208;24.952;2023-01-27T11:30:20;98771.66;;;5.99;100.00
33554;BME280;19885;42.208;24.952;2023-01-27T11:33:12;98840.84;;;6.27;100.00
33554;BME280;19885;42.208;24.952;2023-01-27T11:35:43;98835.75;;;6.43;100.00
33554;BME280;19885;42.208;24.952;2023-01-27T11:38:14;98823.75;;;6.53;100.00
33554;BME280;19885;42.208;24.952;2023-01-27T11:40:41;98823.78;;;6.59;100.00
33554;BME280;19885;42.208;24.952;2023-01-27T11:43:14;98826.47;;;6.82;100.00
33554;BME280;19885;42.208;24.952;2023-01-27T11:45:42;98747.81;;;6.45;100.00
33554;BME280;19885;42.208;24.952;2023-01-27T11:48:12;98814.47;;;6.96;98.57
33554;BME280;19885;42.208;24.952;2023-01-27T11:50:40;98833.50;;;7.07;98.38
33554;BME280;19885;42.208;24.952;2023-01-27T11:55:45;98771.16;;;6.60;97.03
33554;BME280;19885;42.208;24.952;2023-01-27T11:58:18;98847.28;;;6.97;97.74
33554;BME280;19885;42.208;24.952;2023-01-27T12:00:54;98842.81;;;6.70;98.72
33554;BME280;19885;42.208;24.952;2023-01-27T12:06:38;98841.06;;;6.63;98.83
33554;BME280;19885;42.208;24.952;2023-01-27T12:09:05;98835.88;;;6.62;99.10
33554;BME280;19885;42.208;24.952;2023-01-27T12:11:31;98837.56;;;6.55;99.42
33554;BME280;19885;42.208;24.952;2023-01-27T12:14:02;98842.78;;;6.64;99.42
33554;BME280;19885;42.208;24.952;2023-01-27T12:16:46;98835.03;;;6.64;99.88
33554;BME280;19885;42.208;24.952;2023-01-27T12:19:26;98812.56;;;6.62;99.76
33554;BME280;19885;42.208;24.952;2023-01-27T12:21:55;98822.13;;;6.73;100.00
33554;BME280;19885;42.208;24.952;2023-01-27T12:24:34;98812.72;;;6.92;100.00
33554;BME280;19885;42.208;24.952;2023-01-27T12:27:02;98809.28;;;7.02;99.85
33554;BME280;19885;42.208;24.952;2023-01-27T12:29:45;98813.63;;;7.07;100.00
33554;BME280;19885;42.208;24.952;2023-01-27T12:32:19;98814.56;;;7.25;100.00
33554;BME280;19885;42.208;24.952;2023-01-27T12:34:50;98806.78;;;7.22;98.82
33554;BME280;19885;42.208;24.952;2023-01-27T12:37:29;98803.31;;;7.19;98.51
33554;BME280;19885;42.208;24.952;2023-01-27T12:39:59;98804.16;;;7.15;98.39
33554;BME280;19885;42.208;24.952;2023-01-27T12:42:41;98803.31;;;7.10;98.74
33554;BME280;19885;42.208;24.952;2023-01-27T12:47:59;98810.16;;;7.01;98.93
33554;BME280;19885;42.208;24.952;2023-01-27T12:50:31;98807.56;;;6.95;99.69
33554;BME280;19885;42.208;24.952;2023-01-27T12:53:10;98801.50;;;6.94;98.89
33554;BME280;19885;42.208;24.952;2023-01-27T12:55:54;98771.19;;;6.65;98.97
33554;BME280;19885;42.208;24.952;2023-01-27T12:58:28;98805.78;;;6.91;99.36
33554;BME280;19885;42.208;24.952;2023-01-27T13:00:55;98805.78;;;6.85;99.36
33554;BME280;19885;42.208;24.952;2023-01-27T13:03:24;98735.69;;;6.33;99.05
33554;BME280;19885;42.208;24.952;2023-01-27T13:05:55;98794.47;;;6.66;98.82
33554;BME280;19885;42.208;24.952;2023-01-27T13:08:23;98809.16;;;6.67;98.93
33554;BME280;19885;42.208;24.952;2023-01-27T13:11:00;98803.13;;;6.71;99.39
33554;BME280;19885;42.208;24.952;2023-01-27T13:13:28;98791.94;;;6.75;99.93
33554;BME280;19885;42.208;24.952;2023-01-27T13:16:04;98794.56;;;6.77;99.90
33554;BME280;19885;42.208;24.952;2023-01-27T13:18:36;98782.41;;;6.67;99.37
33554;BME280;19885;42.208;24.952;2023-01-27T13:21:12;98792.75;;;6.62;100.00
33554;BME280;19885;42.208;24.952;2023-01-27T13:23:39;98781.53;;;6.60;100.00
33554;BME280;19885;42.208;24.952;2023-01-27T13:31:50;98753.03;;;6.54;100.00
33554;BME280;19885;42.208;24.952;2023-01-27T13:42:35;98792.84;;;6.89;98.67
33554;BME280;19885;42.208;24.952;2023-01-27T13:45:11;98797.19;;;6.93;99.13
33554;BME280;19885;42.208;24.952;2023-01-27T13:52:45;98789.34;;;6.72;98.84
33554;BME280;19885;42.208;24.952;2023-01-27T13:55:14;98812.66;;;6.72;99.09
33554;BME280;19885;42.208;24.952;2023-01-27T14:00:20;98792.75;;;6.62;97.95
33554;BME280;19885;42.208;24.952;2023-01-27T14:03:01;98750.38;;;6.42;98.49
33554;BME280;19885;42.208;24.952;2023-01-27T14:05:53;98744.28;;;6.34;97.89
33554;BME280;19885;42.208;24.952;2023-01-27T14:08:43;98822.16;;;6.81;98.15
33554;BME280;19885;42.208;24.952;2023-01-27T14:11:35;98829.91;;;6.72;98.11
33554;BME280;19885;42.208;24.952;2023-01-27T14:14:20;98830.75;;;6.75;98.23
33554;BME280;19885;42.208;24.952;2023-01-27T14:20:25;98820.31;;;6.54;98.93
33554;BME280;19885;42.208;24.952;2023-01-27T14:26:12;98823.81;;;6.62;98.12
33554;BME280;19885;42.208;24.952;2023-01-27T14:31:28;98825.50;;;6.54;98.55
33554;BME280;19885;42.208;24.952;2023-01-27T14:37:48;98833.19;;;6.45;98.62
33554;BME280;19885;42.208;24.952;2023-01-27T14:45:38;98836.66;;;6.50;98.60
33554;BME280;19885;42.208;24.952;2023-01-27T14:48:15;98757.06;;;6.04;97.75